createdAt,value
2022-11-22T00:00:19.020Z,10.32
2022-11-22T00:02:46.553Z,11.13
2022-11-22T00:05:13.646Z,11.35
2022-11-22T00:07:41.006Z,11.16
2022-11-22T00:10:09.450Z,11.35
2022-11-22T00:12:36.565Z,11.24
2022-11-22T00:15:04.032Z,11.08
2022-11-22T00:17:31.797Z,10.20
2022-11-22T00:19:58.923Z,8.10
2022-11-22T00:22:26.183Z,9.20
2022-11-22T00:24:54.098Z,10.15
2022-11-22T00:27:21.215Z,9.33
2022-11-22T00:29:48.332Z,10.28
2022-11-22T00:32:15.902Z,10.39
2022-11-22T00:34:43.020Z,10.18
2022-11-22T00:37:10.142Z,8.94
2022-11-22T00:39:37.514Z,9.51
2022-11-22T00:42:04.616Z,7.29
2022-11-22T00:44:31.709Z,7.90
2022-11-22T00:46:59.075Z,8.28
2022-11-22T00:49:26.183Z,7.59
2022-11-22T00:51:53.328Z,7.80
2022-11-22T00:54:20.793Z,7.39
2022-11-22T00:56:47.899Z,7.49
2022-11-22T00:59:15.009Z,7.57
2022-11-22T01:01:42.495Z,7.37
2022-11-22T01:04:09.845Z,6.96
2022-11-22T01:06:36.959Z,6.66
2022-11-22T01:09:04.318Z,7.28
2022-11-22T01:11:31.443Z,8.02
2022-11-22T01:13:58.529Z,7.31
2022-11-22T01:16:25.920Z,6.53
2022-11-22T01:18:53.021Z,7.22
2022-11-22T01:21:20.132Z,6.95
2022-11-22T01:23:47.506Z,7.19
2022-11-22T01:26:14.620Z,6.72
2022-11-22T01:28:41.723Z,7.05
2022-11-22T01:31:09.220Z,6.60
2022-11-22T01:33:36.322Z,7.09
2022-11-22T01:36:03.563Z,7.34
2022-11-22T01:38:30.959Z,7.64
2022-11-22T01:40:58.081Z,7.74
2022-11-22T01:43:25.919Z,7.47
2022-11-22T01:45:57.060Z,6.68
2022-11-22T01:48:39.519Z,7.26
2022-11-22T01:51:15.335Z,6.26
2022-11-22T01:53:42.440Z,6.33
2022-11-22T01:56:10.714Z,6.15
2022-11-22T01:58:37.939Z,5.49
2022-11-22T02:01:05.230Z,6.74
2022-11-22T02:03:33.127Z,7.74
2022-11-22T02:06:00.520Z,7.52
2022-11-22T02:08:30.717Z,8.21
2022-11-22T02:10:57.823Z,7.64
2022-11-22T02:13:25.184Z,8.08
2022-11-22T02:15:52.300Z,8.11
2022-11-22T02:18:19.397Z,8.36
2022-11-22T02:20:46.784Z,7.52
2022-11-22T02:23:19.732Z,6.62
2022-11-22T02:25:54.693Z,7.10
2022-11-22T02:28:21.805Z,7.94
2022-11-22T02:30:49.232Z,6.94
2022-11-22T02:33:16.335Z,7.75
2022-11-22T02:35:43.587Z,6.84
2022-11-22T02:38:12.387Z,7.64
2022-11-22T02:40:43.714Z,7.22
2022-11-22T02:43:12.047Z,7.09
2022-11-22T02:45:39.241Z,6.23
2022-11-22T02:48:13.919Z,7.22
2022-11-22T02:50:41.724Z,8.15
2022-11-22T02:53:09.255Z,7.25
2022-11-22T02:55:36.490Z,8.40
2022-11-22T02:58:05.914Z,8.65
2022-11-22T03:00:33.708Z,8.35
2022-11-22T03:03:00.851Z,8.13
2022-11-22T03:05:28.263Z,7.60
2022-11-22T03:07:55.540Z,6.92
2022-11-22T03:10:22.757Z,7.23
2022-11-22T03:12:50.188Z,8.24
2022-11-22T03:15:17.472Z,7.67
2022-11-22T03:17:44.578Z,7.64
2022-11-22T03:20:12.372Z,8.15
2022-11-22T03:22:39.668Z,8.68
2022-11-22T03:25:06.941Z,8.95
2022-11-22T03:27:34.221Z,9.27
2022-11-22T03:30:01.449Z,9.93
2022-11-22T03:32:28.623Z,9.11
2022-11-22T03:34:55.989Z,8.16
2022-11-22T03:37:23.158Z,7.82
2022-11-22T03:39:50.315Z,8.19
2022-11-22T03:42:21.458Z,7.95
2022-11-22T03:44:49.355Z,8.58
2022-11-22T03:47:16.525Z,9.11
2022-11-22T03:49:44.265Z,9.92
2022-11-22T03:52:11.636Z,9.87
2022-11-22T03:54:38.802Z,9.19
2022-11-22T03:57:06.247Z,8.29
2022-11-22T03:59:33.597Z,8.48
2022-11-22T04:02:00.852Z,9.35
2022-11-22T04:04:28.426Z,8.28
2022-11-22T04:06:55.571Z,9.14
2022-11-22T04:09:22.922Z,9.36
2022-11-22T04:11:50.601Z,8.90
2022-11-22T04:14:36.190Z,9.32
2022-11-22T04:17:03.853Z,9.44
2022-11-22T04:19:31.116Z,7.93
2022-11-22T04:21:58.405Z,6.90
2022-11-22T04:24:44.507Z,7.42
2022-11-22T04:27:11.619Z,7.10
2022-11-22T04:29:39.392Z,6.83
2022-11-22T04:32:25.503Z,6.76
2022-11-22T04:34:53.325Z,7.71
2022-11-22T04:37:20.445Z,6.44
2022-11-22T04:39:47.592Z,6.50
2022-11-22T04:42:33.981Z,6.56
2022-11-22T04:45:01.078Z,6.48
2022-11-22T04:48:06.937Z,6.68
2022-11-22T04:50:53.013Z,6.92
2022-11-22T04:53:20.662Z,7.36
2022-11-22T04:55:47.840Z,6.37
2022-11-22T04:58:15.164Z,5.36
2022-11-22T05:00:42.992Z,5.85
2022-11-22T05:03:10.293Z,6.81
2022-11-22T05:05:37.966Z,5.62
2022-11-22T05:08:05.830Z,5.67
2022-11-22T05:10:53.062Z,5.62
2022-11-22T05:13:22.175Z,5.54
2022-11-22T05:15:51.349Z,6.38
2022-11-22T05:18:21.139Z,6.23
2022-11-22T05:20:48.537Z,6.42
2022-11-22T05:23:34.263Z,5.52
2022-11-22T05:26:01.770Z,6.86
2022-11-22T05:28:29.565Z,6.11
2022-11-22T05:30:56.776Z,7.00
2022-11-22T05:33:24.260Z,6.55
2022-11-22T05:35:51.426Z,5.76
2022-11-22T05:38:19.814Z,5.58
2022-11-22T05:40:47.276Z,5.46
2022-11-22T05:43:14.378Z,4.63
2022-11-22T05:45:41.658Z,5.00
2022-11-22T05:48:19.832Z,5.34
2022-11-22T05:50:46.935Z,5.67
2022-11-22T05:53:14.428Z,6.78
2022-11-22T05:55:41.537Z,6.83
2022-11-22T05:58:08.648Z,5.64
2022-11-22T06:00:36.000Z,6.76
2022-11-22T06:03:03.856Z,6.28
2022-11-22T06:05:31.481Z,5.48
2022-11-22T06:08:00.008Z,6.32
2022-11-22T06:10:27.643Z,5.37
2022-11-22T06:12:55.169Z,5.30
2022-11-22T06:15:22.260Z,5.48
2022-11-22T06:17:49.712Z,4.91
2022-11-22T06:20:16.907Z,4.79
2022-11-22T06:22:44.042Z,5.27
2022-11-22T06:25:11.472Z,5.04
2022-11-22T06:27:38.608Z,5.05
2022-11-22T06:30:06.394Z,5.34
2022-11-22T06:32:34.271Z,5.64
2022-11-22T06:35:02.034Z,4.73
2022-11-22T06:37:29.389Z,4.71
2022-11-22T06:39:56.893Z,5.40
2022-11-22T06:42:24.134Z,5.17
2022-11-22T06:44:51.969Z,5.91
2022-11-22T06:47:19.411Z,5.35
2022-11-22T06:49:46.497Z,5.20
2022-11-22T06:52:13.793Z,5.13
2022-11-22T06:54:41.179Z,4.81
2022-11-22T06:57:08.452Z,4.97
2022-11-22T06:59:35.742Z,5.07
2022-11-22T07:02:06.650Z,6.32
2022-11-22T07:04:34.236Z,5.41
2022-11-22T07:07:01.327Z,5.22
2022-11-22T07:09:28.820Z,5.91
2022-11-22T07:11:56.238Z,5.78
2022-11-22T07:14:23.511Z,5.27
2022-11-22T07:16:50.873Z,5.27
2022-11-22T07:19:18.003Z,5.68
2022-11-22T07:21:45.101Z,5.11
2022-11-22T07:24:12.760Z,5.77
2022-11-22T07:26:39.989Z,5.78
2022-11-22T07:29:07.097Z,5.92
2022-11-22T07:31:35.226Z,5.47
2022-11-22T07:34:02.418Z,5.73
2022-11-22T07:36:30.536Z,5.46
2022-11-22T07:38:58.078Z,5.64
2022-11-22T07:41:25.193Z,5.87
2022-11-22T07:43:53.130Z,5.78
2022-11-22T07:46:21.787Z,5.47
2022-11-22T07:48:49.705Z,6.21
2022-11-22T07:51:17.204Z,5.80
2022-11-22T07:53:45.625Z,5.64
2022-11-22T07:56:12.758Z,6.26
2022-11-22T07:58:40.081Z,6.83
2022-11-22T08:01:08.444Z,6.88
2022-11-22T08:03:36.080Z,5.95
2022-11-22T08:06:03.925Z,5.55
2022-11-22T08:08:31.057Z,5.75
2022-11-22T08:10:58.464Z,5.67
2022-11-22T08:13:25.666Z,6.05
2022-11-22T08:15:54.602Z,5.79
2022-11-22T08:18:22.508Z,5.48
2022-11-22T08:20:49.630Z,6.41
2022-11-22T08:23:16.888Z,6.89
2022-11-22T08:25:44.249Z,6.12
2022-11-22T08:28:11.546Z,5.92
2022-11-22T08:30:38.650Z,5.42
2022-11-22T08:33:06.029Z,5.69
2022-11-22T08:35:33.154Z,6.14
2022-11-22T08:38:00.466Z,5.42
2022-11-22T08:40:27.994Z,5.81
2022-11-22T08:42:56.314Z,6.11
2022-11-22T08:45:23.604Z,5.51
2022-11-22T08:47:52.516Z,6.07
2022-11-22T08:50:19.672Z,5.61
2022-11-22T08:52:46.771Z,5.37
2022-11-22T08:55:14.138Z,5.46
2022-11-22T08:57:41.252Z,5.64
2022-11-22T09:00:08.932Z,5.51
2022-11-22T09:02:36.334Z,5.54
2022-11-22T09:05:03.655Z,5.89
2022-11-22T09:10:18.251Z,6.05
2022-11-22T09:12:45.855Z,6.08
2022-11-22T09:15:13.146Z,5.70
2022-11-22T09:17:40.505Z,5.54
2022-11-22T09:20:07.944Z,5.75
2022-11-22T09:22:35.051Z,5.47
2022-11-22T09:25:02.691Z,5.13
2022-11-22T09:27:29.805Z,5.68
2022-11-22T09:29:57.429Z,5.56
2022-11-22T09:32:28.201Z,6.11
2022-11-22T09:34:59.761Z,6.30
2022-11-22T09:37:27.135Z,6.51
2022-11-22T09:39:54.278Z,5.94
2022-11-22T09:42:33.311Z,6.43
2022-11-22T09:45:16.732Z,6.04
2022-11-22T09:47:55.940Z,7.25
2022-11-22T09:50:29.623Z,7.48
2022-11-22T09:52:59.090Z,7.18
2022-11-22T09:55:32.887Z,6.87
2022-11-22T09:58:22.954Z,7.04
2022-11-22T10:00:52.438Z,7.61
2022-11-22T10:03:26.413Z,7.38
2022-11-22T10:05:54.298Z,7.39
2022-11-22T10:08:47.707Z,7.29
2022-11-22T10:11:37.768Z,7.23
2022-11-22T10:14:09.552Z,6.76
2022-11-22T10:16:41.994Z,7.56
2022-11-22T10:19:15.057Z,8.13
2022-11-22T10:21:42.570Z,7.69
2022-11-22T10:24:12.800Z,7.14
2022-11-22T10:26:39.946Z,7.54
2022-11-22T10:29:16.392Z,7.32
2022-11-22T10:31:43.681Z,7.74
2022-11-22T10:34:19.403Z,7.36
2022-11-22T10:36:50.040Z,7.47
2022-11-22T10:39:34.625Z,7.23
2022-11-22T10:42:23.915Z,6.77
2022-11-22T10:45:09.812Z,6.59
2022-11-22T10:47:43.216Z,6.88
2022-11-22T10:50:16.276Z,7.03
2022-11-22T10:52:52.616Z,6.99
2022-11-22T10:55:41.607Z,7.24
2022-11-22T10:58:14.320Z,7.59
2022-11-22T11:00:44.105Z,7.29
2022-11-22T11:03:11.466Z,6.73
2022-11-22T11:06:21.076Z,7.24
2022-11-22T11:09:02.814Z,7.25
2022-11-22T11:11:21.790Z,7.53
2022-11-22T11:14:00.041Z,7.56
2022-11-22T11:16:29.087Z,7.45
2022-11-22T11:18:56.677Z,7.80
2022-11-22T11:21:23.793Z,7.38
2022-11-22T11:23:51.086Z,7.13
2022-11-22T11:26:19.053Z,7.53
2022-11-22T11:28:46.212Z,7.64
2022-11-22T11:31:13.744Z,8.09
2022-11-22T11:33:41.437Z,8.28
2022-11-22T11:36:22.044Z,8.16
2022-11-22T11:38:54.415Z,7.87
2022-11-22T11:41:31.626Z,8.37
2022-11-22T11:43:59.736Z,8.53
2022-11-22T11:46:27.691Z,8.71
2022-11-22T11:48:55.543Z,7.98
2022-11-22T11:51:29.872Z,8.02
2022-11-22T11:53:58.830Z,8.31
2022-11-22T11:56:29.392Z,7.25
2022-11-22T11:58:57.106Z,7.59
2022-11-22T12:01:24.408Z,8.35
2022-11-22T12:03:53.535Z,8.72
2022-11-22T12:06:20.679Z,8.20
2022-11-22T12:08:47.916Z,8.53
2022-11-22T12:11:17.674Z,7.85
2022-11-22T12:14:18.559Z,8.05
2022-11-22T12:16:41.520Z,8.02
2022-11-22T12:19:23.211Z,8.61
2022-11-22T12:22:02.947Z,8.76
2022-11-22T12:27:17.357Z,8.68
2022-11-22T12:29:44.641Z,8.35
2022-11-22T12:32:13.273Z,8.95
2022-11-22T12:35:00.722Z,8.32
2022-11-22T12:37:31.046Z,8.17
2022-11-22T12:39:59.002Z,8.78
2022-11-22T12:42:26.033Z,8.38
2022-11-22T12:44:54.563Z,8.83
2022-11-22T12:47:22.975Z,7.95
2022-11-22T12:49:56.921Z,8.18
2022-11-22T12:52:25.713Z,7.97
2022-11-22T12:54:56.232Z,8.24
2022-11-22T12:57:25.529Z,8.41
2022-11-22T12:59:52.837Z,7.78
2022-11-22T13:02:32.351Z,7.73
2022-11-22T13:05:15.100Z,7.82
2022-11-22T13:07:56.880Z,7.90
2022-11-22T13:10:37.883Z,7.76
2022-11-22T13:13:05.204Z,7.50
2022-11-22T13:15:33.269Z,7.51
2022-11-22T13:18:00.880Z,7.60
2022-11-22T13:20:29.524Z,7.19
2022-11-22T13:23:04.969Z,7.37
2022-11-22T13:25:32.317Z,6.99
2022-11-22T13:28:00.845Z,6.64
2022-11-22T13:30:29.246Z,6.54
2022-11-22T13:33:00.098Z,6.88
2022-11-22T13:35:30.519Z,7.19
2022-11-22T13:37:58.672Z,7.02
2022-11-22T13:40:27.479Z,7.03
2022-11-22T13:43:17.937Z,7.48
2022-11-22T13:45:49.463Z,7.36
2022-11-22T13:48:37.024Z,7.31
2022-11-22T13:51:04.434Z,7.17
2022-11-22T13:53:36.900Z,7.15
2022-11-22T13:56:13.336Z,7.15
2022-11-22T13:58:40.685Z,7.06
2022-11-22T14:01:26.720Z,7.62
2022-11-22T14:03:54.159Z,7.06
2022-11-22T14:06:21.172Z,7.23
2022-11-22T14:08:49.153Z,7.09
2022-11-22T14:11:27.973Z,7.42
2022-11-22T14:14:01.068Z,7.54
2022-11-22T14:16:28.363Z,7.52
2022-11-22T14:19:00.126Z,7.22
2022-11-22T14:21:46.159Z,7.54
2022-11-22T14:24:13.886Z,7.86
2022-11-22T14:26:54.801Z,7.62
2022-11-22T14:29:37.961Z,6.79
2022-11-22T14:32:12.646Z,6.95
2022-11-22T14:34:59.778Z,7.10
2022-11-22T14:37:29.561Z,6.59
2022-11-22T14:40:09.039Z,6.48
2022-11-22T14:42:36.311Z,7.49
2022-11-22T14:45:24.053Z,7.56
2022-11-22T14:47:51.115Z,7.23
2022-11-22T14:50:24.630Z,7.35
2022-11-22T14:52:51.733Z,7.05
2022-11-22T14:55:20.754Z,6.73
2022-11-22T14:57:48.752Z,7.09
2022-11-22T15:00:18.966Z,7.07
2022-11-22T15:02:46.287Z,6.85
2022-11-22T15:09:10.193Z,6.75
2022-11-22T15:09:29.492Z,7.32
2022-11-22T15:11:17.061Z,6.54
2022-11-22T15:13:50.619Z,6.22
2022-11-22T15:59:40.731Z,6.95
2022-11-22T16:02:20.698Z,6.90
2022-11-22T16:04:48.715Z,6.99
2022-11-22T16:07:39.940Z,7.23
2022-11-22T16:10:14.893Z,7.08
2022-11-22T16:12:42.076Z,6.89
2022-11-22T16:15:28.777Z,6.83
2022-11-22T16:18:15.379Z,7.13
2022-11-22T16:20:43.231Z,6.37
2022-11-22T16:23:10.250Z,6.75
2022-11-22T16:25:38.334Z,6.61
2022-11-22T16:28:26.203Z,6.37
2022-11-22T16:30:53.798Z,6.86
2022-11-22T16:33:21.746Z,7.83
2022-11-22T16:35:59.333Z,7.90
2022-11-22T16:38:27.295Z,7.98
2022-11-22T16:40:56.271Z,7.02
2022-11-22T16:43:24.786Z,7.33
2022-11-22T16:45:52.660Z,6.95
2022-11-22T16:48:31.983Z,6.79
2022-11-22T16:51:07.150Z,6.99
2022-11-22T16:53:37.021Z,6.41
2022-11-22T16:56:04.891Z,6.54
2022-11-22T16:58:32.147Z,6.92
2022-11-22T17:00:59.440Z,8.20
2022-11-22T17:03:27.387Z,7.74
2022-11-22T17:05:54.742Z,7.18
2022-11-22T17:08:22.118Z,7.52
2022-11-22T17:10:50.987Z,6.95
2022-11-22T17:13:19.791Z,7.17
2022-11-22T17:15:47.406Z,6.61
2022-11-22T17:18:14.907Z,6.61
2022-11-22T17:20:42.218Z,6.64
2022-11-22T17:23:20.341Z,7.20
2022-11-22T17:25:48.669Z,7.35
2022-11-22T17:28:17.115Z,7.57
2022-11-22T17:30:44.777Z,7.59
2022-11-22T17:33:12.345Z,6.69
2022-11-22T17:35:39.772Z,6.63
2022-11-22T17:38:07.760Z,6.74
2022-11-22T17:40:35.796Z,6.69
2022-11-22T17:43:03.768Z,7.16
2022-11-22T17:45:36.747Z,7.92
2022-11-22T17:48:04.904Z,7.91
2022-11-22T17:50:32.172Z,7.31
2022-11-22T17:52:59.260Z,7.12
2022-11-22T17:55:42.657Z,7.04
2022-11-22T17:58:14.576Z,6.76
2022-11-22T18:00:42.417Z,7.21
2022-11-22T18:03:11.403Z,7.36
2022-11-22T18:05:39.623Z,7.78
2022-11-22T18:08:07.684Z,8.18
2022-11-22T18:10:35.478Z,7.65
2022-11-22T18:13:20.683Z,7.69
2022-11-22T18:15:54.004Z,7.89
2022-11-22T18:18:54.455Z,7.71
2022-11-22T18:21:17.198Z,7.76
2022-11-22T18:23:48.721Z,8.03
2022-11-22T18:29:40.741Z,7.83
2022-11-22T18:31:54.973Z,7.29
2022-11-22T18:34:23.091Z,7.41
2022-11-22T18:36:56.256Z,7.61
2022-11-22T18:39:30.599Z,7.88
2022-11-22T18:42:01.506Z,7.30
2022-11-22T18:44:34.746Z,7.53
2022-11-22T18:47:02.385Z,7.54
2022-11-22T18:49:30.799Z,7.94
2022-11-22T18:51:58.436Z,7.65
2022-11-22T18:54:26.680Z,7.86
2022-11-22T18:56:54.891Z,7.84
2022-11-22T18:59:23.739Z,8.48
2022-11-22T19:01:51.648Z,8.71
2022-11-22T19:04:19.550Z,7.28
2022-11-22T19:06:48.995Z,7.64
2022-11-22T19:09:16.526Z,7.80
2022-11-22T19:11:44.070Z,7.90
2022-11-22T19:14:12.797Z,8.32
2022-11-22T19:16:41.229Z,9.04
2022-11-22T19:19:11.104Z,9.11
2022-11-22T19:21:38.690Z,8.59
2022-11-22T19:24:06.599Z,8.76
2022-11-22T19:26:34.920Z,7.99
2022-11-22T19:29:04.053Z,7.51
2022-11-22T19:31:31.925Z,8.72
2022-11-22T19:34:01.021Z,8.34
2022-11-22T19:36:33.400Z,8.64
2022-11-22T19:39:05.941Z,7.79
2022-11-22T19:41:33.899Z,8.13
2022-11-22T19:44:01.998Z,7.66
2022-11-22T19:46:30.265Z,8.14
2022-11-22T19:48:58.218Z,7.62
2022-11-22T19:51:26.135Z,7.59
2022-11-22T19:53:54.199Z,7.57
2022-11-22T19:56:27.137Z,7.65
2022-11-22T19:59:04.813Z,8.03
2022-11-22T20:01:36.404Z,8.40
2022-11-22T20:04:05.064Z,9.18
2022-11-22T20:06:33.692Z,8.58
2022-11-22T20:09:04.962Z,8.13
2022-11-22T20:11:32.593Z,8.40
2022-11-22T20:14:00.443Z,8.60
2022-11-22T20:16:29.031Z,8.57
2022-11-22T20:18:57.691Z,8.96
2022-11-22T20:21:25.946Z,8.60
2022-11-22T20:23:54.380Z,8.43
2022-11-22T20:26:22.668Z,9.47
2022-11-22T20:28:59.588Z,8.46
2022-11-22T20:31:33.028Z,9.01
2022-11-22T20:34:01.136Z,8.72
2022-11-22T20:36:30.829Z,9.37
2022-11-22T20:39:01.881Z,8.69
2022-11-22T20:41:35.251Z,9.15
2022-11-22T20:44:03.818Z,8.74
2022-11-22T20:46:31.595Z,9.37
2022-11-22T20:49:02.551Z,8.35
2022-11-22T20:51:30.631Z,8.05
2022-11-22T20:53:58.665Z,9.48
2022-11-22T20:56:29.051Z,9.01
2022-11-22T20:58:56.807Z,8.29
2022-11-22T21:01:26.317Z,8.97
2022-11-22T21:03:55.857Z,8.20
2022-11-22T21:06:25.511Z,8.70
2022-11-22T21:08:53.142Z,8.65
2022-11-22T21:11:24.528Z,8.95
2022-11-22T21:13:52.235Z,8.69
2022-11-22T21:16:24.453Z,9.03
2022-11-22T21:19:00.488Z,8.29
2022-11-22T21:21:27.932Z,8.59
2022-11-22T21:23:56.043Z,8.36
2022-11-22T21:26:24.106Z,7.57
2022-11-22T21:28:51.422Z,7.76
2022-11-22T21:31:18.913Z,7.15
2022-11-22T21:33:46.054Z,7.98
2022-11-22T21:36:13.298Z,8.38
2022-11-22T21:38:40.695Z,8.63
2022-11-22T21:41:39.398Z,7.65
2022-11-22T21:43:56.899Z,7.76
2022-11-22T21:46:25.293Z,7.92
2022-11-22T21:48:52.440Z,9.09
2022-11-22T21:51:19.840Z,8.50
2022-11-22T21:53:46.951Z,8.12
2022-11-22T21:56:14.059Z,8.67
2022-11-22T21:58:41.423Z,8.31
2022-11-22T22:01:13.903Z,8.23
2022-11-22T22:03:41.810Z,8.55
2022-11-22T22:06:09.010Z,8.94
2022-11-22T22:08:36.461Z,9.14
2022-11-22T22:11:05.462Z,8.64
2022-11-22T22:13:34.427Z,8.52
2022-11-22T22:16:13.002Z,9.01
2022-11-22T22:18:40.416Z,8.40
2022-11-22T22:21:08.995Z,8.56
2022-11-22T22:23:39.745Z,8.12
2022-11-22T22:26:08.006Z,8.68
2022-11-22T22:28:36.036Z,8.70
2022-11-22T22:31:13.564Z,8.32
2022-11-22T22:33:41.264Z,8.33
2022-11-22T22:36:08.856Z,8.98
2022-11-22T22:38:36.022Z,8.33
2022-11-22T22:41:04.009Z,9.24
2022-11-22T22:43:31.879Z,8.19
2022-11-22T22:46:06.235Z,8.96
2022-11-22T22:48:34.378Z,9.02
2022-11-22T22:51:32.787Z,9.04
2022-11-22T22:54:00.866Z,8.88
2022-11-22T22:56:28.605Z,9.81
2022-11-22T22:58:56.008Z,9.41
2022-11-22T23:01:24.557Z,9.66
2022-11-22T23:03:53.241Z,8.75
2022-11-22T23:06:20.749Z,9.20
2022-11-22T23:08:49.812Z,9.77
2022-11-22T23:11:17.945Z,9.75
2022-11-22T23:13:45.088Z,8.86
2022-11-22T23:16:12.997Z,9.33
2022-11-22T23:18:40.790Z,9.24
2022-11-22T23:21:08.258Z,9.20
2022-11-22T23:23:35.676Z,9.24
2022-11-22T23:26:06.768Z,9.46
2022-11-22T23:28:33.887Z,9.34
2022-11-22T23:31:10.015Z,8.93
2022-11-22T23:33:37.673Z,9.29
2022-11-22T23:36:05.589Z,9.25
2022-11-22T23:38:32.831Z,9.41
2022-11-22T23:40:59.946Z,8.37
2022-11-22T23:43:27.686Z,7.97
2022-11-22T23:45:54.825Z,7.87
2022-11-22T23:48:22.011Z,9.00
2022-11-22T23:50:49.395Z,8.70
2022-11-22T23:53:16.531Z,9.04
2022-11-22T23:55:43.626Z,9.34
2022-11-22T23:58:11.045Z,8.63
